EST,Max TemperatureF,Mean TemperatureF,Min TemperatureF,Max Dew PointF,MeanDew PointF,Min DewpointF,Max Humidity, Mean Humidity, Min Humidity, Max Sea Level PressureIn, Mean Sea Level PressureIn, Min Sea Level PressureIn, Max VisibilityMiles, Mean VisibilityMiles, Min VisibilityMiles, Max Wind SpeedMPH, Mean Wind SpeedMPH, Max Gust SpeedMPH,PrecipitationIn, CloudCover, Events, WindDirDegrees
2012-12-1,41,36,32,38,31,23,93,83,64,30.58,30.52,30.46,10,10,8,9,7,,0.00,8,Snow,39
2012-12-2,55,46,37,50,44,37,100,91,80,30.44,30.29,30.11,10,8,2,14,5,21,0.00,4,Rain,226
2012-12-3,59,48,35,49,44,33,97,83,51,30.30,30.16,30.09,10,6,2,15,5,20,0.00,3,,280
2012-12-4,55,42,30,55,48,29,100,97,88,30.32,30.19,30.03,10,6,2,14,4,20,0.01,6,Rain,182
2012-12-5,55,45,34,55,40,18,100,73,43,30.16,29.99,29.91,10,8,4,18,9,30,0.01,4,Rain,280
2012-12-6,41,32,23,21,18,15,88,60,38,30.34,30.29,30.18,10,10,10,10,5,17,0.00,0,,338
2012-12-7,46,34,21,46,36,19,100,89,68,30.30,30.16,30.06,10,7,2,5,1,,0.01,7,Rain,289
2012-12-8,52,49,46,52,48,45,100,98,93,30.04,29.94,29.86,10,4,0,7,2,,0.31,8,Fog-Rain,354
2012-12-9,50,46,41,48,42,34,100,87,54,30.27,30.15,29.99,10,6,2,16,5,22,0.07,6,Rain,39
2012-12-10,59,52,46,59,55,46,100,100,93,30.05,29.71,29.55,10,3,0,15,9,23,1.31,8,Fog-Rain-Thunderstorm,221
2012-12-11,54,45,36,54,38,22,100,74,44,30.18,29.83,29.57,10,8,0,14,6,23,0.03,5,Fog-Rain,313
2012-12-12,42,35,28,27,22,20,92,63,41,30.45,30.35,30.18,10,10,9,12,6,17,0.00,0,,336
2012-12-13,45,36,26,28,25,22,92,75,40,30.47,30.41,30.32,10,10,6,6,2,,0.00,0,,31
2012-12-14,46,34,23,33,27,21,96,73,49,30.30,30.21,30.12,10,9,7,14,3,25,0.00,0,,275
2012-12-15,44,35,26,31,27,24,92,75,49,30.32,30.28,30.21,10,10,6,7,2,,0.00,0,,57
2012-12-16,41,37,33,41,36,27,100,91,70,30.28,30.12,29.99,10,5,2,18,10,26,0.10,8,Rain,73
2012-12-17,46,42,39,45,45,42,100,99,93,29.97,29.86,29.73,10,4,2,13,8,20,0.15,8,Rain,43
2012-12-18,51,48,44,52,47,41,100,97,81,29.69,29.51,29.45,10,7,2,13,6,18,0.44,8,Rain,325
2012-12-19,46,42,39,36,31,28,74,63,52,30.04,29.73,29.51,10,10,10,20,10,33,0.00,3,,311
2012-12-20,44,36,28,38,31,26,89,73,55,30.21,30.12,29.99,10,10,9,12,4,16,0.00,3,Rain,93
2012-12-21,55,47,39,55,42,27,100,84,60,29.96,29.39,29.13,10,7,1,29,16,47,0.63,8,Rain,156
2012-12-22,39,36,34,34,25,17,83,64,46,29.72,29.46,29.29,10,10,10,17,11,33,0.01,7,Rain,280
2012-12-23,39,37,35,28,22,18,73,55,46,29.93,29.86,29.75,10,10,10,12,7,24,0.00,4,,271
2012-12-24,39,32,24,29,23,18,93,69,46,30.09,30.02,29.92,10,8,2,10,3,,0.00,3,Snow,347
2012-12-25,37,32,28,36,32,23,100,92,75,30.23,30.03,29.94,10,6,2,10,7,,0.02,7,Rain-Snow,3
2012-12-26,37,30,24,36,27,16,100,80,63,30.30,30.08,29.73,10,8,1,23,10,38,0.17,5,Rain-Snow,51
2012-12-27,48,40,32,48,41,24,100,94,73,29.69,29.36,29.21,10,5,1,30,16,47,0.71,8,Rain,11
2012-12-28,37,32,28,23,20,18,81,65,52,30.05,29.92,29.71,10,10,10,14,9,26,0.00,2,,310
2012-12-29,35,30,24,32,30,22,100,93,75,30.04,29.61,29.35,10,5,0,16,6,25,0.40,7,Fog-Rain-Snow,11
2012-12-30,30,26,21,28,19,9,93,72,51,30.06,29.74,29.45,10,10,9,15,10,31,0.00,2,,312
2012-12-31,37,29,21,26,19,7,67,59,52,30.11,30.01,29.83,10,10,10,13,7,24,0.00,3,,264